createdAt,value
2022-12-11T00:01:14.036Z,-0.01
2022-12-11T00:05:54.064Z,-0.05
2022-12-11T00:10:34.661Z,0.02
2022-12-11T00:15:14.052Z,0.04
2022-12-11T00:19:45.040Z,0.06
2022-12-11T00:24:22.030Z,0.06
2022-12-11T00:29:00.042Z,0.08
2022-12-11T00:33:37.056Z,0.10
2022-12-11T00:38:15.043Z,0.10
2022-12-11T00:42:52.037Z,0.13
2022-12-11T00:47:29.054Z,0.16
2022-12-11T00:52:06.051Z,0.16
2022-12-11T00:56:31.396Z,0.19
2022-12-11T01:00:34.612Z,0.18
2022-12-11T01:04:38.230Z,0.19
2022-12-11T01:08:41.468Z,0.22
2022-12-11T01:12:45.865Z,0.27
2022-12-11T01:16:48.929Z,0.26
2022-12-11T01:20:52.563Z,0.22
2022-12-11T01:25:10.728Z,0.23
2022-12-11T01:29:15.318Z,0.24
2022-12-11T01:33:18.352Z,0.24
2022-12-11T01:37:21.466Z,0.27
2022-12-11T01:41:24.504Z,0.27
2022-12-11T01:45:38.819Z,0.30
2022-12-11T01:49:43.030Z,0.30
2022-12-11T01:53:51.646Z,0.32
2022-12-11T01:57:55.508Z,0.38
2022-12-11T02:02:04.285Z,0.38
2022-12-11T02:06:07.676Z,0.38
2022-12-11T02:10:12.757Z,0.40
2022-12-11T02:14:26.599Z,0.43
2022-12-11T02:18:37.271Z,0.37
2022-12-11T02:22:56.883Z,0.36
2022-12-11T02:27:29.860Z,0.37
2022-12-11T02:31:39.965Z,0.35
2022-12-11T02:35:45.766Z,0.36
2022-12-11T02:39:51.770Z,0.35
2022-12-11T02:43:57.730Z,0.29
2022-12-11T02:48:05.837Z,0.21
2022-12-11T02:52:11.916Z,0.18
2022-12-11T02:56:20.145Z,0.15
2022-12-11T03:00:23.541Z,0.14
2022-12-11T03:04:28.117Z,0.17
2022-12-11T03:08:31.213Z,0.13
2022-12-11T03:12:37.815Z,0.13
2022-12-11T03:16:44.032Z,0.09
2022-12-11T03:20:55.690Z,0.10
2022-12-11T03:25:03.717Z,0.06
2022-12-11T03:29:16.324Z,0.02
2022-12-11T03:33:24.978Z,-0.02
2022-12-11T03:37:32.470Z,-0.04
2022-12-11T03:41:38.566Z,0.03
2022-12-11T03:45:43.227Z,-0.01
2022-12-11T03:49:49.095Z,0.01
2022-12-11T03:53:54.486Z,0.00
2022-12-11T03:57:57.695Z,0.01
2022-12-11T04:02:01.175Z,0.03
2022-12-11T04:06:04.550Z,0.07
2022-12-11T04:10:09.302Z,0.08
2022-12-11T04:14:46.954Z,0.06
2022-12-11T04:19:07.413Z,0.07
2022-12-11T04:23:32.318Z,0.08
2022-12-11T04:27:51.743Z,0.11
2022-12-11T04:31:54.869Z,0.06
2022-12-11T04:35:59.193Z,0.08
2022-12-11T04:40:02.295Z,0.03
2022-12-11T04:44:06.878Z,0.09
2022-12-11T04:48:09.973Z,0.09
2022-12-11T04:52:13.015Z,0.12
2022-12-11T04:56:17.136Z,0.14
2022-12-11T05:00:21.721Z,0.17
2022-12-11T05:04:24.843Z,0.17
2022-12-11T05:08:27.972Z,0.20
2022-12-11T05:12:31.019Z,0.22
2022-12-11T05:16:35.615Z,0.21
2022-12-11T05:20:38.763Z,0.27
2022-12-11T05:24:41.998Z,0.24
2022-12-11T05:28:46.197Z,0.28
2022-12-11T05:32:50.645Z,0.27
2022-12-11T05:36:53.728Z,0.29
2022-12-11T05:40:58.920Z,0.31
2022-12-11T05:45:01.930Z,0.31
2022-12-11T05:49:06.752Z,0.31
2022-12-11T05:53:09.787Z,0.34
2022-12-11T05:57:12.887Z,0.33
2022-12-11T06:01:18.673Z,0.35
2022-12-11T06:05:23.098Z,0.34
2022-12-11T06:09:26.231Z,0.36
2022-12-11T06:13:29.336Z,0.35
2022-12-11T06:17:32.434Z,0.35
2022-12-11T06:21:36.892Z,0.36
2022-12-11T06:25:40.854Z,0.35
2022-12-11T06:29:43.923Z,0.34
2022-12-11T06:33:47.286Z,0.32
2022-12-11T06:37:51.858Z,0.36
2022-12-11T06:41:54.954Z,0.33
2022-12-11T06:46:03.439Z,0.36
2022-12-11T06:50:07.781Z,0.34
2022-12-11T06:54:12.171Z,0.35
2022-12-11T06:58:15.201Z,0.29
2022-12-11T07:02:19.982Z,0.28
2022-12-11T07:06:23.901Z,0.23
2022-12-11T07:10:28.532Z,0.19
2022-12-11T07:14:31.693Z,0.19
2022-12-11T07:18:34.821Z,0.20
2022-12-11T07:22:44.669Z,0.19
2022-12-11T07:26:51.869Z,0.23
2022-12-11T07:30:54.942Z,0.19
2022-12-11T07:34:58.026Z,0.06
2022-12-11T07:39:01.815Z,0.03
2022-12-11T07:43:06.390Z,0.04
2022-12-11T07:47:09.469Z,0.03
2022-12-11T07:51:15.145Z,0.06
2022-12-11T07:55:19.892Z,0.08
2022-12-11T07:59:24.339Z,0.09
2022-12-11T08:03:27.415Z,0.06
2022-12-11T08:07:30.475Z,0.02
2022-12-11T08:11:34.108Z,-0.01
2022-12-11T08:15:39.707Z,0.02
2022-12-11T08:19:42.805Z,0.06
2022-12-11T08:23:45.920Z,0.07
2022-12-11T08:27:49.056Z,0.13
2022-12-11T08:31:53.700Z,-0.01
2022-12-11T08:35:56.830Z,0.05
2022-12-11T08:39:59.903Z,0.00
2022-12-11T08:44:04.665Z,-0.06
2022-12-11T08:48:10.359Z,0.08
2022-12-11T08:52:13.469Z,-0.02
2022-12-11T08:56:19.115Z,-0.12
2022-12-11T09:00:22.713Z,-0.17
2022-12-11T09:04:27.319Z,-0.16
2022-12-11T09:08:30.649Z,-0.12
2022-12-11T09:12:34.483Z,-0.13
2022-12-11T09:16:40.677Z,-0.21
2022-12-11T09:20:45.396Z,-0.16
2022-12-11T09:24:48.585Z,-0.14
2022-12-11T09:28:53.618Z,-0.11
2022-12-11T09:32:57.501Z,-0.09
2022-12-11T09:37:02.884Z,-0.00
2022-12-11T09:41:30.873Z,0.02
2022-12-11T09:45:35.152Z,0.10
2022-12-11T09:49:42.844Z,0.12
2022-12-11T09:53:47.633Z,0.13
2022-12-11T09:57:59.166Z,0.18
2022-12-11T10:02:15.924Z,0.03
2022-12-11T10:06:26.170Z,-0.08
2022-12-11T10:10:39.563Z,-0.08
2022-12-11T10:14:56.452Z,-0.11
2022-12-11T10:18:59.796Z,-0.05
2022-12-11T10:23:05.779Z,-0.14
2022-12-11T10:27:19.411Z,-0.04
2022-12-11T10:31:33.066Z,0.08
2022-12-11T10:35:39.596Z,0.20
2022-12-11T10:39:43.081Z,0.10
2022-12-11T10:43:49.039Z,0.11
2022-12-11T10:48:02.709Z,0.13
2022-12-11T10:52:12.194Z,0.25
2022-12-11T10:56:15.429Z,0.16
2022-12-11T11:00:37.144Z,0.11
2022-12-11T11:04:44.872Z,0.20
2022-12-11T11:08:50.122Z,0.33
2022-12-11T11:13:00.942Z,0.42
2022-12-11T11:17:05.434Z,0.37
2022-12-11T11:21:17.005Z,0.48
2022-12-11T11:25:22.098Z,0.30
2022-12-11T11:29:31.976Z,0.42
2022-12-11T11:33:38.920Z,0.44
2022-12-11T11:37:45.919Z,0.49
2022-12-11T11:41:57.234Z,0.47
2022-12-11T11:46:05.738Z,0.54
2022-12-11T11:50:20.225Z,0.42
2022-12-11T11:54:34.361Z,0.48
2022-12-11T11:58:41.862Z,0.44
2022-12-11T12:02:47.157Z,0.43
2022-12-11T12:07:08.873Z,0.82
2022-12-11T12:11:21.756Z,0.98
2022-12-11T12:15:36.611Z,0.80
2022-12-11T12:19:47.947Z,0.74
2022-12-11T12:24:05.786Z,0.47
2022-12-11T12:28:37.364Z,0.36
2022-12-11T12:32:48.747Z,0.54
2022-12-11T12:37:05.230Z,0.52
2022-12-11T12:41:19.693Z,0.53
2022-12-11T12:45:28.807Z,0.56
2022-12-11T12:49:37.988Z,0.44
2022-12-11T12:53:45.307Z,0.44
2022-12-11T12:57:52.798Z,0.54
2022-12-11T13:01:58.696Z,0.43
2022-12-11T13:06:05.731Z,0.39
2022-12-11T13:10:24.339Z,0.58
2022-12-11T13:14:32.568Z,0.51
2022-12-11T13:18:37.618Z,0.53
2022-12-11T13:22:50.919Z,0.40
2022-12-11T13:26:54.690Z,0.46
2022-12-11T13:31:01.787Z,0.44
2022-12-11T13:35:07.526Z,0.46
2022-12-11T13:39:19.449Z,0.49
2022-12-11T13:43:27.148Z,0.53
2022-12-11T13:47:32.638Z,0.29
2022-12-11T13:51:37.686Z,0.26
2022-12-11T13:55:40.800Z,0.28
2022-12-11T13:59:48.172Z,0.48
2022-12-11T14:03:56.829Z,0.43
2022-12-11T14:08:05.964Z,0.47
2022-12-11T14:12:21.006Z,0.55
2022-12-11T14:16:27.428Z,0.54
2022-12-11T14:20:34.354Z,0.50
2022-12-11T14:24:37.434Z,0.24
2022-12-11T14:28:43.848Z,0.19
2022-12-11T14:32:47.266Z,0.21
2022-12-11T14:36:52.324Z,0.16
2022-12-11T14:41:00.271Z,0.28
2022-12-11T14:45:13.789Z,0.30
2022-12-11T14:49:23.105Z,0.37
2022-12-11T14:53:33.325Z,0.29
2022-12-11T14:57:37.305Z,0.34
2022-12-11T15:01:40.561Z,0.32
2022-12-11T15:05:51.446Z,0.14
2022-12-11T15:09:55.919Z,0.14
2022-12-11T15:14:01.745Z,0.12
2022-12-11T15:18:14.600Z,0.14
2022-12-11T15:22:19.211Z,0.11
2022-12-11T15:26:34.867Z,0.18
2022-12-11T15:30:38.185Z,0.26
2022-12-11T15:34:45.535Z,0.21
2022-12-11T15:38:48.655Z,0.06
2022-12-11T15:42:54.930Z,0.18
2022-12-11T15:46:58.025Z,0.10
2022-12-11T15:51:01.132Z,0.09
2022-12-11T15:55:04.749Z,0.09
2022-12-11T15:59:11.511Z,0.03
2022-12-11T16:03:16.355Z,-0.02
2022-12-11T16:07:22.299Z,-0.01
2022-12-11T16:11:25.436Z,-0.00
2022-12-11T16:15:30.789Z,-0.01
2022-12-11T16:19:34.051Z,0.00
2022-12-11T16:23:37.284Z,-0.02
2022-12-11T16:27:40.514Z,-0.02
2022-12-11T16:31:46.319Z,-0.05
2022-12-11T16:35:49.379Z,-0.05
2022-12-11T16:39:52.475Z,-0.04
2022-12-11T16:43:55.874Z,0.01
2022-12-11T16:48:03.235Z,-0.03
2022-12-11T16:52:06.462Z,0.03
2022-12-11T16:56:10.790Z,0.05
2022-12-11T17:00:15.460Z,0.11
2022-12-11T17:04:19.979Z,0.04
2022-12-11T17:08:23.503Z,0.10
2022-12-11T17:12:28.040Z,0.06
2022-12-11T17:16:31.951Z,0.06
2022-12-11T17:20:36.504Z,0.02
2022-12-11T17:24:39.588Z,0.04
2022-12-11T17:28:42.696Z,0.11
2022-12-11T17:32:49.129Z,0.04
2022-12-11T17:36:55.223Z,0.14
2022-12-11T17:40:58.406Z,0.13
2022-12-11T17:45:02.261Z,0.15
2022-12-11T17:49:06.563Z,0.11
2022-12-11T17:53:13.005Z,0.12
2022-12-11T17:57:16.165Z,0.12
2022-12-11T18:01:19.752Z,0.10
2022-12-11T18:05:23.035Z,0.07
2022-12-11T18:09:27.573Z,0.15
2022-12-11T18:13:30.715Z,0.11
2022-12-11T18:17:34.474Z,0.17
2022-12-11T18:21:42.808Z,0.19
2022-12-11T18:25:47.366Z,0.16
2022-12-11T18:29:50.831Z,0.08
2022-12-11T18:33:53.966Z,0.16
2022-12-11T18:37:57.286Z,0.24
2022-12-11T18:42:31.214Z,0.25
2022-12-11T18:46:25.104Z,0.25
2022-12-11T18:50:28.328Z,0.18
2022-12-11T18:54:33.980Z,0.17
2022-12-11T18:58:39.030Z,0.13
2022-12-11T19:02:42.141Z,0.18
2022-12-11T19:06:45.737Z,0.21
2022-12-11T19:10:48.956Z,0.22
2022-12-11T19:14:53.678Z,0.12
2022-12-11T19:18:57.178Z,0.20
2022-12-11T19:23:00.276Z,0.27
2022-12-11T19:27:07.340Z,0.22
2022-12-11T19:31:17.306Z,0.14
2022-12-11T19:35:20.429Z,0.03
2022-12-11T19:39:23.612Z,0.00
2022-12-11T19:43:26.717Z,-0.05
2022-12-11T19:47:31.215Z,-0.11
2022-12-11T19:51:38.568Z,-0.22
2022-12-11T19:55:42.507Z,-0.22
2022-12-11T19:59:45.725Z,-0.21
2022-12-11T20:03:50.138Z,-0.19
2022-12-11T20:07:53.415Z,-0.19
2022-12-11T20:11:56.568Z,-0.17
2022-12-11T20:15:59.710Z,-0.01
2022-12-11T20:20:04.520Z,-0.10
2022-12-11T20:24:08.154Z,-0.09
2022-12-11T20:28:11.578Z,-0.11
2022-12-11T20:32:15.311Z,-0.10
2022-12-11T20:36:21.908Z,-0.06
2022-12-11T20:40:25.411Z,-0.07
2022-12-11T20:44:28.526Z,0.05
2022-12-11T20:48:31.969Z,0.04
2022-12-11T20:52:36.988Z,-0.04
2022-12-11T20:56:40.111Z,-0.01
2022-12-11T21:00:43.938Z,-0.03
2022-12-11T21:04:47.146Z,0.00
2022-12-11T21:08:51.631Z,-0.15
2022-12-11T21:12:54.750Z,-0.19
2022-12-11T21:16:57.985Z,-0.19
2022-12-11T21:21:01.101Z,-0.22
2022-12-11T21:25:06.481Z,-0.16
2022-12-11T21:29:09.965Z,-0.12
2022-12-11T21:33:13.120Z,-0.08
2022-12-11T21:37:16.263Z,-0.08
2022-12-11T21:41:23.489Z,-0.03
2022-12-11T21:45:59.350Z,-0.07
2022-12-11T21:49:49.923Z,-0.05
2022-12-11T21:53:54.780Z,0.07
2022-12-11T21:57:59.250Z,0.09
2022-12-11T22:02:02.403Z,0.14
2022-12-11T22:06:06.011Z,0.11
2022-12-11T22:10:10.143Z,0.16
2022-12-11T22:14:15.757Z,0.14
2022-12-11T22:18:18.956Z,0.20
2022-12-11T22:22:22.074Z,0.20
2022-12-11T22:26:28.082Z,0.15
2022-12-11T22:30:32.986Z,0.19
2022-12-11T22:34:36.298Z,0.15
2022-12-11T22:38:39.958Z,0.18
2022-12-11T22:42:44.193Z,0.20
2022-12-11T22:46:50.444Z,0.18
2022-12-11T22:50:54.336Z,0.14
2022-12-11T22:54:58.102Z,0.11
2022-12-11T22:59:01.167Z,0.08
2022-12-11T23:03:05.774Z,0.04
2022-12-11T23:07:09.090Z,0.04
2022-12-11T23:11:13.582Z,-0.10
2022-12-11T23:15:19.266Z,-0.07
2022-12-11T23:19:25.665Z,-0.08
2022-12-11T23:23:29.485Z,-0.09
2022-12-11T23:27:32.686Z,-0.14
2022-12-11T23:31:36.033Z,-0.21
2022-12-11T23:35:40.464Z,-0.36
2022-12-11T23:39:43.538Z,-0.50
2022-12-11T23:43:46.676Z,-0.53
2022-12-11T23:47:49.898Z,-0.59
2022-12-11T23:51:54.368Z,-0.67
2022-12-11T23:55:57.763Z,-0.82
